アトランタ の空港の天気 - METARとTAF

ハーツフィールド・ジャクソン・アトランタ国際空港 ( KATL / ATL ) - アメリカ ジョージア州アトランタ
飛行場実況気象(Metar)
観測時間08/11 02:52 EDT (08/11 06:52 UTC)
風向・風速西北西 3m/s
視程10km以上
天気現象
少しの雲 雲底高度 150m
全天の4割程度の雲 雲底高度 3960m
全天の8割程度の雲 雲底高度 6100m
気温22.8℃
湿度87%
気圧1016.2hPa
METARKATL 110652Z 29005KT 10SM FEW005 SCT130 BKN200 23/21 A3004 RMK AO2 SLP162 T02280206
過去の天気等 Google飛行場航空写真 Wunderground天気予報

過去48時間のMETAR

飛行場予報(TAF)
発表時間: 8/11 01:20 EDT (8/11 05:20 UTC)
予報対象時間: 11日2時 EDT ~ 12日8時 EDT
風向・風速西 3m/s
視程10km以上
全天の4割程度の雲 雲底高度 4570m
全天の8割程度の雲 雲底高度 6100m
11日11時 EDT から
風向・風速西北西 3m/s
視程10km以上
全天の4割程度の雲 雲底高度 910m
全天の4割程度の雲 雲底高度 6100m
11日14時 EDT から
風向・風速北西 4m/s
視程10km以上
天気現象周辺でしゅう雨
全天の4割程度の雲 雲底高度 1520m
11日15時 EDT から 確率 30% で
風向・風速不定 8m/s 瞬間風速 13m/s
視程4830m
天気現象雷雨
全天の8割程度の積乱雲 雲底高度 1070m
11日22時 EDT から
風向・風速北北西 3m/s
視程10km以上
全天の4割程度の雲 雲底高度 4570m
KATL 110520Z 1106/1212 28005KT P6SM SCT150 BKN200
FM111500 29006KT P6SM SCT030 SCT200
FM111800 31007KT P6SM VCSH SCT050
PROB30 1119/1124 VRB15G25KT 3SM TSRA BKN035CB
FM120200 34005KT P6SM SCT150